Time;durP1;ratioP1;P1;durP2;ratioP2;P2;SDS_P1;SDS_P2;PMS_P1;PMS_P2;Temp;Humidity;BMP_temperature;BMP_pressure;BME280_temperature;BME280_humidity;BME280_pressure;Samples;Min_cycle;Max_cycle;Signal;HPM_P1;HPM_P2
2020/12/17 00:01:07;;;;;;;0.20;0.20;;;;;;;;;;5121850;28;20202;-78
2020/12/17 00:03:34;;;;;;;0.20;0.20;;;;;;;;;;5091784;28;20271;-78
2020/12/17 00:06:00;;;;;;;0.20;0.20;;;;;;;;;;5084887;28;20198;-78
2020/12/17 00:08:27;;;;;;;6.83;6.43;;;;;;;;;;5096970;28;20271;-79
2020/12/17 00:10:55;;;;;;;0.63;0.63;;;;;;;;;;5086265;28;20573;-78
2020/12/17 00:13:22;;;;;;;0.30;0.30;;;;;;;;;;5083679;28;20198;-78
2020/12/17 00:15:48;;;;;;;0.20;0.20;;;;;;;;;;5114163;28;20244;-78
2020/12/17 00:18:14;;;;;;;0.20;0.20;;;;;;;;;;5099477;28;20247;-77
2020/12/17 00:20:41;;;;;;;0.50;0.40;;;;;;;;;;5098022;28;20241;-78
2020/12/17 00:23:07;;;;;;;0.20;0.20;;;;;;;;;;5099814;28;20226;-78
2020/12/17 00:25:35;;;;;;;1.33;1.33;;;;;;;;;;5094646;28;20298;-77
2020/12/17 00:28:01;;;;;;;0.20;0.20;;;;;;;;;;5093554;28;20234;-78
2020/12/17 00:30:27;;;;;;;0.30;0.30;;;;;;;;;;5099752;28;20226;-78
2020/12/17 00:32:54;;;;;;;0.30;0.30;;;;;;;;;;5107815;28;20266;-78
2020/12/17 00:35:21;;;;;;;0.97;0.80;;;;;;;;;;5090687;28;20207;-78
2020/12/17 00:37:47;;;;;;;0.60;0.60;;;;;;;;;;5096702;28;20240;-78
2020/12/17 00:40:14;;;;;;;0.60;0.60;;;;;;;;;;5098236;28;20238;-79
2020/12/17 00:42:43;;;;;;;1.23;1.23;;;;;;;;;;5091079;28;20206;-78
2020/12/17 00:45:09;;;;;;;1.23;1.23;;;;;;;;;;5104352;28;20262;-78
2020/12/17 00:47:35;;;;;;;0.20;0.20;;;;;;;;;;5117349;28;20199;-77
2020/12/17 00:50:02;;;;;;;0.10;0.10;;;;;;;;;;5095962;28;20320;-78
2020/12/17 00:52:29;;;;;;;0.20;0.20;;;;;;;;;;5102088;28;20206;-77
2020/12/17 00:54:55;;;;;;;0.20;0.20;;;;;;;;;;5093454;28;20198;-76
2020/12/17 00:57:25;;;;;;;12.63;11.50;;;;;;;;;;5102653;28;20237;-77
2020/12/17 00:59:52;;;;;;;1.73;1.67;;;;;;;;;;5106963;28;20542;-78
2020/12/17 01:02:18;;;;;;;0.30;0.30;;;;;;;;;;5101501;28;20194;-77
2020/12/17 01:04:45;;;;;;;2.03;1.83;;;;;;;;;;5117663;28;20199;-78
2020/12/17 01:07:11;;;;;;;0.20;0.20;;;;;;;;;;5102754;28;20529;-77
2020/12/17 01:09:38;;;;;;;0.20;0.20;;;;;;;;;;5097742;28;20214;-78
2020/12/17 01:12:05;;;;;;;0.23;0.23;;;;;;;;;;5084898;28;20302;-78
2020/12/17 01:14:31;;;;;;;1.27;1.20;;;;;;;;;;5113035;28;20207;-78
2020/12/17 01:17:00;;;;;;;0.40;0.40;;;;;;;;;;5083585;28;20400;-75
2020/12/17 01:19:26;;;;;;;0.37;0.37;;;;;;;;;;5110979;28;20218;-78
2020/12/17 01:21:52;;;;;;;0.20;0.20;;;;;;;;;;5115931;28;20237;-78
2020/12/17 01:24:19;;;;;;;1.53;1.43;;;;;;;;;;5101558;28;20243;-78
2020/12/17 01:26:45;;;;;;;0.20;0.20;;;;;;;;;;5094220;28;20226;-78
2020/12/17 01:29:11;;;;;;;0.20;0.20;;;;;;;;;;5104163;28;20195;-78
2020/12/17 01:31:38;;;;;;;0.53;0.53;;;;;;;;;;5100314;28;20206;-78
2020/12/17 01:34:05;;;;;;;0.20;0.20;;;;;;;;;;5088706;28;20231;-78
2020/12/17 01:36:32;;;;;;;0.20;0.20;;;;;;;;;;5087202;28;20217;-78
2020/12/17 01:38:58;;;;;;;4.17;4.00;;;;;;;;;;5099127;28;20245;-78
2020/12/17 01:41:24;;;;;;;0.77;0.77;;;;;;;;;;5113286;28;20205;-77
2020/12/17 01:43:51;;;;;;;2.10;2.00;;;;;;;;;;5100099;28;20441;-78
2020/12/17 01:46:17;;;;;;;0.20;0.20;;;;;;;;;;5098877;28;20219;-77
2020/12/17 01:48:44;;;;;;;0.93;0.93;;;;;;;;;;5100808;28;20193;-78
2020/12/17 01:51:11;;;;;;;0.70;0.70;;;;;;;;;;5120195;28;20492;-78
2020/12/17 01:53:38;;;;;;;0.20;0.20;;;;;;;;;;5095862;28;20217;-77
2020/12/17 01:56:07;;;;;;;0.20;0.20;;;;;;;;;;5091932;28;20203;-77
2020/12/17 01:58:36;;;;;;;0.20;0.20;;;;;;;;;;5117118;28;20213;-77
2020/12/17 02:01:02;;;;;;;0.30;0.30;;;;;;;;;;5114972;28;20317;-78
2020/12/17 02:03:29;;;;;;;0.40;0.40;;;;;;;;;;5101608;28;20194;-77
2020/12/17 02:05:57;;;;;;;0.20;0.20;;;;;;;;;;5089564;28;20233;-77
2020/12/17 02:08:26;;;;;;;0.20;0.20;;;;;;;;;;5106606;28;20314;-78
2020/12/17 02:10:52;;;;;;;0.60;0.60;;;;;;;;;;5082092;28;20202;-78
2020/12/17 02:13:31;;;;;;;1.37;0.90;;;;;;;;;;5093111;28;20226;-78
2020/12/17 02:15:58;;;;;;;0.30;0.30;;;;;;;;;;5105481;28;20226;-78
2020/12/17 02:18:24;;;;;;;0.60;0.57;;;;;;;;;;5114446;28;20301;-78
2020/12/17 02:20:51;;;;;;;0.83;0.83;;;;;;;;;;5096187;28;20201;-78
2020/12/17 02:23:17;;;;;;;1.03;0.70;;;;;;;;;;5097864;28;20498;-78
2020/12/17 02:25:45;;;;;;;0.20;0.20;;;;;;;;;;5095827;28;20247;-78
2020/12/17 02:28:11;;;;;;;0.53;0.53;;;;;;;;;;5094917;28;20205;-77
2020/12/17 02:30:37;;;;;;;0.70;0.70;;;;;;;;;;5092672;28;20221;-77
2020/12/17 02:33:04;;;;;;;0.97;0.67;;;;;;;;;;5114280;28;20272;-78
2020/12/17 02:35:30;;;;;;;0.20;0.20;;;;;;;;;;5100664;28;20373;-78
2020/12/17 02:37:57;;;;;;;0.20;0.20;;;;;;;;;;5095687;28;20230;-77
2020/12/17 02:40:23;;;;;;;0.10;0.10;;;;;;;;;;5090824;28;20274;-78
2020/12/17 02:42:51;;;;;;;0.43;0.43;;;;;;;;;;5092647;28;20202;-78
2020/12/17 02:45:17;;;;;;;0.57;0.57;;;;;;;;;;5105479;28;20599;-78
2020/12/17 02:47:44;;;;;;;0.33;0.33;;;;;;;;;;5103786;28;20194;-77
2020/12/17 02:50:12;;;;;;;1.60;1.57;;;;;;;;;;5095551;28;20525;-78
2020/12/17 02:52:38;;;;;;;0.20;0.20;;;;;;;;;;5106356;28;20198;-78
2020/12/17 02:55:05;;;;;;;0.20;0.20;;;;;;;;;;5105292;28;20252;-79
2020/12/17 02:57:31;;;;;;;0.20;0.20;;;;;;;;;;5109791;28;20218;-78
2020/12/17 02:59:58;;;;;;;0.20;0.20;;;;;;;;;;5104881;28;20411;-78
2020/12/17 03:02:25;;;;;;;0.27;0.27;;;;;;;;;;5099747;28;20209;-78
2020/12/17 03:04:52;;;;;;;2.00;1.80;;;;;;;;;;5100228;28;20203;-78
2020/12/17 03:07:18;;;;;;;0.20;0.20;;;;;;;;;;5107159;28;20198;-78
2020/12/17 03:09:44;;;;;;;0.17;0.17;;;;;;;;;;5092647;28;20230;-78
2020/12/17 03:12:10;;;;;;;0.37;0.37;;;;;;;;;;5116734;28;20668;-77
2020/12/17 03:14:36;;;;;;;0.20;0.20;;;;;;;;;;5101794;28;20230;-78
2020/12/17 03:17:04;;;;;;;3.97;0.83;;;;;;;;;;5110993;28;20237;-79
2020/12/17 03:19:30;;;;;;;0.20;0.20;;;;;;;;;;5101987;28;20253;-78
2020/12/17 03:21:56;;;;;;;0.30;0.30;;;;;;;;;;5086651;28;20489;-78
2020/12/17 03:24:23;;;;;;;0.30;0.30;;;;;;;;;;5103905;28;20198;-78
2020/12/17 03:26:49;;;;;;;0.20;0.20;;;;;;;;;;5104931;28;20482;-78
2020/12/17 03:29:16;;;;;;;2.60;1.70;;;;;;;;;;5094445;28;20194;-78
2020/12/17 03:31:42;;;;;;;0.77;0.77;;;;;;;;;;5102451;28;20236;-78
2020/12/17 03:34:09;;;;;;;0.10;0.10;;;;;;;;;;5094761;28;20269;-78
2020/12/17 03:36:36;;;;;;;0.63;0.63;;;;;;;;;;5113998;28;20202;-78
2020/12/17 03:39:02;;;;;;;1.70;1.40;;;;;;;;;;5105957;28;20214;-78
2020/12/17 03:41:29;;;;;;;2.33;2.30;;;;;;;;;;5103510;28;20230;-78
2020/12/17 03:43:55;;;;;;;0.20;0.20;;;;;;;;;;5102362;28;20222;-78
2020/12/17 03:46:22;;;;;;;0.20;0.20;;;;;;;;;;5100891;28;20293;-78
2020/12/17 03:48:48;;;;;;;1.80;1.70;;;;;;;;;;5090035;28;20227;-78
2020/12/17 03:51:15;;;;;;;0.20;0.20;;;;;;;;;;5104322;28;20285;-78
2020/12/17 03:53:42;;;;;;;0.20;0.20;;;;;;;;;;5103863;28;20315;-78
2020/12/17 03:56:08;;;;;;;0.20;0.20;;;;;;;;;;5092498;28;20197;-78
2020/12/17 03:58:35;;;;;;;0.20;0.20;;;;;;;;;;5110411;28;20215;-77
2020/12/17 04:01:01;;;;;;;0.30;0.30;;;;;;;;;;5101979;28;20382;-78
2020/12/17 04:03:28;;;;;;;0.50;0.50;;;;;;;;;;5120235;28;20225;-78
2020/12/17 04:05:54;;;;;;;0.30;0.30;;;;;;;;;;5097347;28;20501;-78
2020/12/17 04:08:22;;;;;;;1.97;1.93;;;;;;;;;;5103159;28;20202;-78
2020/12/17 04:10:48;;;;;;;0.20;0.20;;;;;;;;;;5102587;28;20255;-78
2020/12/17 04:13:15;;;;;;;0.20;0.20;;;;;;;;;;5096330;28;20225;-78
2020/12/17 04:15:41;;;;;;;1.00;1.00;;;;;;;;;;5102785;28;20234;-78
2020/12/17 04:18:07;;;;;;;0.93;0.33;;;;;;;;;;5103988;28;20308;-78
2020/12/17 04:20:34;;;;;;;14.03;10.90;;;;;;;;;;5106713;28;20231;-78
2020/12/17 04:23:00;;;;;;;0.33;0.33;;;;;;;;;;5101565;28;20225;-78
2020/12/17 04:25:28;;;;;;;0.20;0.20;;;;;;;;;;5102193;28;20197;-78
2020/12/17 04:27:54;;;;;;;1.40;1.40;;;;;;;;;;5091583;28;20501;-77
2020/12/17 04:30:21;;;;;;;0.20;0.20;;;;;;;;;;5083923;28;20248;-77
2020/12/17 04:32:47;;;;;;;0.20;0.20;;;;;;;;;;5095092;28;20202;-78
2020/12/17 04:35:13;;;;;;;0.20;0.20;;;;;;;;;;5099167;28;20205;-78
2020/12/17 04:37:40;;;;;;;0.23;0.23;;;;;;;;;;5113551;28;20234;-78
2020/12/17 04:40:06;;;;;;;0.20;0.20;;;;;;;;;;5096447;28;20313;-77
2020/12/17 04:42:34;;;;;;;0.23;0.23;;;;;;;;;;5092487;28;20509;-78
2020/12/17 04:45:01;;;;;;;0.20;0.20;;;;;;;;;;5099267;28;20222;-77
2020/12/17 04:47:29;;;;;;;0.40;0.40;;;;;;;;;;5102833;28;20449;-78
2020/12/17 04:50:02;;;;;;;0.23;0.23;;;;;;;;;;5117402;28;20234;-78
2020/12/17 04:52:30;;;;;;;0.40;0.40;;;;;;;;;;5104422;28;20201;-78
2020/12/17 04:54:57;;;;;;;0.80;0.80;;;;;;;;;;5107217;28;20220;-78
2020/12/17 04:57:25;;;;;;;0.40;0.40;;;;;;;;;;5101194;28;20273;-78
2020/12/17 04:59:52;;;;;;;10.43;1.03;;;;;;;;;;5103470;28;20218;-78
2020/12/17 05:02:20;;;;;;;0.40;0.40;;;;;;;;;;5103299;28;20479;-78
2020/12/17 05:04:47;;;;;;;2.10;2.10;;;;;;;;;;5099600;28;20194;-78
2020/12/17 05:07:14;;;;;;;0.20;0.20;;;;;;;;;;5106912;28;20242;-78
2020/12/17 05:09:41;;;;;;;0.20;0.20;;;;;;;;;;5110100;28;20241;-78
2020/12/17 05:12:08;;;;;;;0.20;0.20;;;;;;;;;;5115060;28;20256;-78
2020/12/17 05:14:34;;;;;;;0.47;0.47;;;;;;;;;;5109496;28;20516;-78
2020/12/17 05:17:01;;;;;;;0.93;0.93;;;;;;;;;;5113425;28;20336;-78
2020/12/17 05:19:28;;;;;;;0.20;0.20;;;;;;;;;;5108639;28;20537;-78
2020/12/17 05:21:55;;;;;;;0.67;0.67;;;;;;;;;;5101157;28;20237;-78
2020/12/17 05:24:22;;;;;;;1.30;1.30;;;;;;;;;;5116777;28;20194;-78
2020/12/17 05:26:49;;;;;;;0.20;0.20;;;;;;;;;;5103496;28;20512;-79
2020/12/17 05:29:16;;;;;;;3.10;3.00;;;;;;;;;;5106197;28;20195;-79
2020/12/17 05:31:43;;;;;;;0.20;0.20;;;;;;;;;;5100575;28;20251;-79
2020/12/17 05:34:10;;;;;;;0.87;0.87;;;;;;;;;;5092525;28;20194;-78
2020/12/17 05:36:37;;;;;;;0.20;0.20;;;;;;;;;;5111021;28;20455;-78
2020/12/17 05:39:08;;;;;;;0.60;0.60;;;;;;;;;;5092840;28;20324;-78
2020/12/17 05:41:35;;;;;;;0.30;0.30;;;;;;;;;;5108503;28;20278;-78
2020/12/17 05:44:08;;;;;;;0.23;0.23;;;;;;;;;;5099694;28;20383;-78
2020/12/17 05:46:35;;;;;;;1.83;1.83;;;;;;;;;;5106494;28;20202;-78
2020/12/17 05:49:08;;;;;;;0.20;0.20;;;;;;;;;;5099490;28;20267;-78
2020/12/17 05:51:35;;;;;;;0.27;0.27;;;;;;;;;;5107428;28;20247;-78
2020/12/17 05:54:02;;;;;;;0.20;0.20;;;;;;;;;;5100446;28;20230;-78
2020/12/17 05:56:29;;;;;;;0.20;0.20;;;;;;;;;;5091436;28;20248;-78
2020/12/17 05:59:00;;;;;;;0.43;0.43;;;;;;;;;;5101979;28;20213;-77
2020/12/17 06:01:27;;;;;;;0.60;0.60;;;;;;;;;;5107657;28;20473;-78
2020/12/17 06:03:54;;;;;;;0.20;0.20;;;;;;;;;;5106234;28;20199;-78
2020/12/17 06:06:21;;;;;;;1.47;1.40;;;;;;;;;;5089744;28;20198;-78
2020/12/17 06:08:50;;;;;;;0.30;0.30;;;;;;;;;;5090733;28;20194;-79
2020/12/17 06:11:17;;;;;;;0.67;0.67;;;;;;;;;;5101366;28;20201;-79
2020/12/17 06:13:44;;;;;;;0.87;0.87;;;;;;;;;;5099541;28;20551;-79
2020/12/17 06:16:11;;;;;;;0.80;0.80;;;;;;;;;;5112039;28;20265;-79
2020/12/17 06:18:38;;;;;;;0.77;0.77;;;;;;;;;;5105218;28;20271;-78
2020/12/17 06:21:11;;;;;;;3.17;2.97;;;;;;;;;;5124342;28;20218;-79
2020/12/17 06:23:38;;;;;;;0.27;0.27;;;;;;;;;;5101834;28;20222;-79
2020/12/17 06:26:07;;;;;;;0.20;0.20;;;;;;;;;;5107146;28;20198;-78
2020/12/17 06:28:37;;;;;;;5.50;2.13;;;;;;;;;;5108183;28;20203;-78
2020/12/17 06:31:04;;;;;;;1.37;1.27;;;;;;;;;;5099846;28;20225;-79
2020/12/17 06:33:35;;;;;;;0.30;0.30;;;;;;;;;;5101155;28;20195;-78
2020/12/17 06:36:02;;;;;;;0.40;0.40;;;;;;;;;;5121387;28;20488;-79
2020/12/17 06:38:28;;;;;;;1.90;1.40;;;;;;;;;;5114364;28;20389;-78
2020/12/17 06:40:55;;;;;;;0.20;0.20;;;;;;;;;;5103695;28;20225;-78
2020/12/17 06:43:32;;;;;;;0.50;0.50;;;;;;;;;;5117795;28;20243;-79
2020/12/17 06:45:58;;;;;;;0.20;0.20;;;;;;;;;;5088669;28;20214;-79
2020/12/17 06:48:29;;;;;;;0.20;0.20;;;;;;;;;;5122374;28;20279;-79
2020/12/17 06:50:55;;;;;;;2.47;2.37;;;;;;;;;;5108819;28;20194;-79
2020/12/17 06:53:36;;;;;;;0.40;0.40;;;;;;;;;;5105055;28;20268;-78
2020/12/17 06:56:02;;;;;;;0.40;0.40;;;;;;;;;;5106832;28;20241;-78
2020/12/17 06:58:28;;;;;;;1.37;1.37;;;;;;;;;;5100858;28;20269;-79
2020/12/17 07:00:56;;;;;;;0.33;0.33;;;;;;;;;;5103636;28;20195;-79
2020/12/17 07:03:41;;;;;;;0.20;0.20;;;;;;;;;;5090847;28;20209;-78
2020/12/17 07:06:11;;;;;;;0.57;0.57;;;;;;;;;;5099935;28;20273;-79
2020/12/17 07:08:38;;;;;;;4.10;3.83;;;;;;;;;;5103115;27;20202;-79
2020/12/17 07:11:05;;;;;;;1.33;0.97;;;;;;;;;;5102744;28;20233;-77
2020/12/17 07:13:38;;;;;;;0.20;0.20;;;;;;;;;;5098762;28;20199;-77
2020/12/17 07:16:06;;;;;;;1.63;1.53;;;;;;;;;;5107947;28;20238;-77
2020/12/17 07:18:32;;;;;;;0.30;0.30;;;;;;;;;;5113347;28;20201;-77
2020/12/17 07:21:03;;;;;;;0.27;0.27;;;;;;;;;;5097159;28;20194;-77
2020/12/17 07:23:33;;;;;;;0.40;0.40;;;;;;;;;;5119051;28;20223;-74
2020/12/17 07:26:04;;;;;;;0.20;0.20;;;;;;;;;;5112700;28;20194;-79
2020/12/17 07:28:32;;;;;;;0.20;0.20;;;;;;;;;;5112424;28;20198;-76
2020/12/17 07:30:58;;;;;;;0.20;0.20;;;;;;;;;;5103998;28;20318;-70
2020/12/17 07:33:46;;;;;;;0.30;0.30;;;;;;;;;;5086777;28;20265;-70
2020/12/17 07:36:13;;;;;;;0.73;0.73;;;;;;;;;;5101336;28;20405;-72
2020/12/17 07:38:40;;;;;;;0.87;0.87;;;;;;;;;;5097340;28;20198;-73
2020/12/17 07:41:21;;;;;;;0.40;0.40;;;;;;;;;;5098824;28;20194;-74
2020/12/17 07:43:48;;;;;;;0.67;0.67;;;;;;;;;;5114345;28;20194;-74
2020/12/17 07:46:14;;;;;;;0.20;0.20;;;;;;;;;;5100487;28;20306;-74
2020/12/17 07:48:42;;;;;;;0.20;0.20;;;;;;;;;;5097690;28;20454;-76
2020/12/17 07:51:10;;;;;;;0.83;0.83;;;;;;;;;;5104961;28;20371;-74
2020/12/17 07:53:38;;;;;;;0.97;0.50;;;;;;;;;;5104173;28;20194;-74
2020/12/17 07:56:05;;;;;;;4.50;3.03;;;;;;;;;;5112620;28;20202;-73
2020/12/17 07:58:31;;;;;;;0.30;0.30;;;;;;;;;;5102962;28;20232;-73
2020/12/17 08:00:59;;;;;;;2.00;1.90;;;;;;;;;;5096580;28;20198;-74
2020/12/17 08:03:27;;;;;;;0.60;0.60;;;;;;;;;;5104397;28;20525;-74
2020/12/17 08:06:05;;;;;;;0.30;0.30;;;;;;;;;;5101309;28;20240;-74
2020/12/17 08:08:31;;;;;;;1.50;1.27;;;;;;;;;;5117255;28;20220;-73
2020/12/17 08:10:59;;;;;;;2.40;2.30;;;;;;;;;;5098296;28;20486;-72
2020/12/17 08:13:26;;;;;;;0.30;0.30;;;;;;;;;;5098569;28;20277;-72
2020/12/17 08:15:53;;;;;;;0.70;0.70;;;;;;;;;;5100855;28;20232;-69
2020/12/17 08:18:22;;;;;;;2.13;1.90;;;;;;;;;;5111725;28;20205;-75
2020/12/17 08:20:49;;;;;;;0.20;0.20;;;;;;;;;;5100003;28;20191;-76
2020/12/17 08:23:18;;;;;;;0.33;0.33;;;;;;;;;;5090663;28;20198;-74
2020/12/17 08:25:45;;;;;;;1.53;1.23;;;;;;;;;;5107079;28;20194;-74
2020/12/17 08:28:14;;;;;;;3.00;1.47;;;;;;;;;;5098996;28;20507;-75
2020/12/17 08:30:40;;;;;;;0.20;0.20;;;;;;;;;;5122495;28;20214;-76
2020/12/17 08:33:10;;;;;;;2.43;1.90;;;;;;;;;;5096278;28;20223;-76
2020/12/17 08:35:36;;;;;;;2.97;2.77;;;;;;;;;;5110105;28;20194;-76
2020/12/17 08:38:06;;;;;;;3.30;1.23;;;;;;;;;;5101598;28;20209;-75
2020/12/17 08:40:34;;;;;;;0.90;0.87;;;;;;;;;;5107779;28;20547;-74
2020/12/17 08:43:04;;;;;;;0.20;0.20;;;;;;;;;;5112745;28;20198;-73
2020/12/17 08:45:31;;;;;;;0.20;0.20;;;;;;;;;;5108308;28;20222;-73
2020/12/17 08:48:00;;;;;;;0.40;0.40;;;;;;;;;;5097911;28;20204;-76
2020/12/17 08:50:26;;;;;;;2.03;1.27;;;;;;;;;;5102050;28;20289;-76
2020/12/17 08:52:53;;;;;;;1.23;1.23;;;;;;;;;;5105101;28;20445;-77
2020/12/17 08:55:22;;;;;;;0.20;0.20;;;;;;;;;;5094267;28;20224;-75
2020/12/17 08:57:49;;;;;;;2.30;2.20;;;;;;;;;;5105904;28;20327;-74
2020/12/17 09:00:16;;;;;;;0.83;0.83;;;;;;;;;;5102314;28;20194;-74
2020/12/17 09:02:44;;;;;;;0.30;0.30;;;;;;;;;;5105563;28;20240;-73
2020/12/17 09:05:12;;;;;;;0.20;0.20;;;;;;;;;;5099796;28;20198;-72
2020/12/17 09:07:41;;;;;;;0.20;0.20;;;;;;;;;;5089897;28;20202;-73
2020/12/17 09:10:08;;;;;;;0.57;0.57;;;;;;;;;;5102703;28;20214;-75
2020/12/17 09:12:35;;;;;;;0.30;0.30;;;;;;;;;;5116514;28;20393;-75
2020/12/17 09:15:06;;;;;;;0.20;0.20;;;;;;;;;;5107050;28;20194;-74
2020/12/17 09:17:33;;;;;;;0.63;0.63;;;;;;;;;;5101454;28;20424;-76
2020/12/17 09:20:00;;;;;;;0.20;0.20;;;;;;;;;;5101715;28;20516;-73
2020/12/17 09:22:32;;;;;;;0.20;0.20;;;;;;;;;;5101781;28;20229;-73
2020/12/17 09:24:58;;;;;;;0.20;0.20;;;;;;;;;;5094451;28;20196;-72
2020/12/17 09:27:26;;;;;;;1.33;1.33;;;;;;;;;;5100439;28;20210;-74
2020/12/17 09:30:07;;;;;;;5.93;2.10;;;;;;;;;;5100453;28;20221;-75
2020/12/17 09:32:35;;;;;;;0.20;0.20;;;;;;;;;;5100448;28;20238;-73
2020/12/17 09:35:03;;;;;;;0.40;0.40;;;;;;;;;;5098975;28;20678;-73
2020/12/17 09:37:30;;;;;;;0.20;0.20;;;;;;;;;;5117203;28;20504;-73
2020/12/17 09:39:56;;;;;;;0.93;0.77;;;;;;;;;;5105490;28;20493;-74
2020/12/17 09:42:24;;;;;;;1.13;1.13;;;;;;;;;;5097132;28;20226;-74
2020/12/17 09:44:50;;;;;;;1.20;1.17;;;;;;;;;;5092811;28;20218;-74
2020/12/17 09:47:29;;;;;;;0.87;0.87;;;;;;;;;;5120130;28;20206;-73
2020/12/17 09:49:56;;;;;;;0.20;0.20;;;;;;;;;;5119579;28;20251;-74
2020/12/17 09:52:25;;;;;;;0.20;0.20;;;;;;;;;;5100771;28;20244;-73
2020/12/17 09:54:52;;;;;;;0.40;0.40;;;;;;;;;;5114944;28;20198;-73
2020/12/17 09:57:19;;;;;;;0.20;0.20;;;;;;;;;;5099298;28;20226;-73
2020/12/17 09:59:46;;;;;;;0.47;0.47;;;;;;;;;;5102863;28;20541;-73
2020/12/17 10:02:13;;;;;;;0.10;0.10;;;;;;;;;;5098832;28;20225;-72
2020/12/17 10:04:40;;;;;;;0.23;0.23;;;;;;;;;;5094670;28;20205;-73
2020/12/17 10:07:07;;;;;;;0.23;0.23;;;;;;;;;;5106599;28;20391;-73
2020/12/17 10:09:35;;;;;;;0.40;0.40;;;;;;;;;;5109476;28;20217;-72
2020/12/17 10:12:02;;;;;;;0.30;0.30;;;;;;;;;;5089927;28;20210;-73
2020/12/17 10:14:29;;;;;;;0.50;0.50;;;;;;;;;;5091719;28;20225;-73
2020/12/17 10:16:56;;;;;;;3.73;3.50;;;;;;;;;;5107162;28;20295;-72
2020/12/17 10:19:23;;;;;;;2.63;2.43;;;;;;;;;;5107841;28;20197;-73
2020/12/17 10:21:50;;;;;;;1.53;1.03;;;;;;;;;;5089522;28;20251;-73
2020/12/17 10:24:17;;;;;;;1.13;1.13;;;;;;;;;;5092209;28;20233;-72
2020/12/17 10:26:45;;;;;;;0.10;0.10;;;;;;;;;;5106806;28;20606;-72
2020/12/17 10:29:12;;;;;;;0.60;0.60;;;;;;;;;;5094139;28;20576;-73
2020/12/17 10:31:39;;;;;;;0.30;0.30;;;;;;;;;;5091035;28;20281;-73
2020/12/17 10:34:06;;;;;;;2.37;2.07;;;;;;;;;;5090776;28;20272;-72
2020/12/17 10:36:36;;;;;;;0.20;0.20;;;;;;;;;;5090020;28;20224;-72
2020/12/17 10:39:03;;;;;;;0.53;0.53;;;;;;;;;;5107726;28;20329;-73
2020/12/17 10:41:30;;;;;;;0.50;0.50;;;;;;;;;;5089714;28;20209;-74
2020/12/17 10:43:57;;;;;;;1.60;1.60;;;;;;;;;;5083806;28;20271;-73
2020/12/17 10:46:24;;;;;;;0.20;0.20;;;;;;;;;;5107907;28;20266;-74
2020/12/17 10:48:51;;;;;;;0.20;0.20;;;;;;;;;;5093418;28;20327;-73
2020/12/17 10:51:18;;;;;;;0.83;0.83;;;;;;;;;;5087432;28;20212;-73
2020/12/17 10:53:45;;;;;;;0.40;0.40;;;;;;;;;;5105024;28;20220;-73
2020/12/17 10:56:11;;;;;;;1.40;1.30;;;;;;;;;;5105708;28;20205;-73
2020/12/17 10:58:38;;;;;;;1.30;0.63;;;;;;;;;;5114489;28;20209;-75
2020/12/17 11:01:05;;;;;;;0.20;0.20;;;;;;;;;;5086263;28;20206;-75
2020/12/17 11:03:32;;;;;;;0.20;0.20;;;;;;;;;;5092173;28;20409;-75
2020/12/17 11:05:59;;;;;;;0.40;0.40;;;;;;;;;;5087733;28;20200;-75
2020/12/17 11:08:27;;;;;;;8.40;1.43;;;;;;;;;;5088909;28;20279;-75
2020/12/17 11:10:53;;;;;;;0.30;0.30;;;;;;;;;;5089259;28;20236;-74
2020/12/17 11:13:20;;;;;;;3.83;1.17;;;;;;;;;;5106704;28;20199;-75
2020/12/17 11:15:48;;;;;;;2.03;0.80;;;;;;;;;;5089807;28;20233;-75
2020/12/17 11:18:15;;;;;;;0.20;0.20;;;;;;;;;;5115654;28;20401;-75
2020/12/17 11:20:42;;;;;;;0.30;0.30;;;;;;;;;;5105916;28;20208;-74
2020/12/17 11:23:09;;;;;;;0.40;0.40;;;;;;;;;;5088829;28;20205;-74
2020/12/17 11:25:36;;;;;;;1.03;1.03;;;;;;;;;;5104304;28;20214;-75
2020/12/17 11:28:03;;;;;;;1.23;0.50;;;;;;;;;;5090709;28;20212;-74
2020/12/17 11:30:30;;;;;;;0.97;0.97;;;;;;;;;;5092174;28;20526;-74
2020/12/17 11:32:56;;;;;;;1.80;1.37;;;;;;;;;;5087099;28;20482;-74
2020/12/17 11:35:24;;;;;;;2.13;1.80;;;;;;;;;;5087205;28;20223;-73
2020/12/17 11:37:51;;;;;;;0.20;0.20;;;;;;;;;;5088980;28;20238;-72
2020/12/17 11:40:18;;;;;;;0.20;0.20;;;;;;;;;;5091994;28;20306;-75
2020/12/17 11:42:45;;;;;;;2.37;2.20;;;;;;;;;;5086682;28;20212;-72
2020/12/17 11:45:11;;;;;;;0.30;0.30;;;;;;;;;;5085442;28;20224;-74
2020/12/17 11:47:37;;;;;;;0.10;0.10;;;;;;;;;;5116882;28;20526;-75
2020/12/17 11:50:04;;;;;;;0.40;0.40;;;;;;;;;;5106021;28;20216;-74
2020/12/17 11:52:31;;;;;;;0.20;0.20;;;;;;;;;;5105181;28;20329;-74
2020/12/17 11:54:58;;;;;;;0.20;0.20;;;;;;;;;;5105430;28;20205;-73
2020/12/17 11:57:24;;;;;;;0.10;0.10;;;;;;;;;;5086575;28;20199;-75
2020/12/17 11:59:51;;;;;;;0.20;0.20;;;;;;;;;;5086634;28;20196;-72
2020/12/17 12:02:17;;;;;;;0.20;0.20;;;;;;;;;;5085730;28;20205;-73
2020/12/17 12:04:44;;;;;;;1.67;1.57;;;;;;;;;;5087055;28;20300;-72
2020/12/17 12:07:11;;;;;;;0.20;0.20;;;;;;;;;;5086353;28;20200;-74
2020/12/17 12:09:38;;;;;;;2.03;2.03;;;;;;;;;;5087729;28;20446;-73
2020/12/17 12:12:04;;;;;;;0.10;0.10;;;;;;;;;;5114552;28;20329;-73
2020/12/17 12:14:31;;;;;;;0.83;0.40;;;;;;;;;;5085912;28;20215;-72
2020/12/17 12:16:57;;;;;;;9.23;1.70;;;;;;;;;;5087065;28;20489;-73
2020/12/17 12:19:24;;;;;;;0.30;0.30;;;;;;;;;;5090579;28;20237;-73
2020/12/17 12:21:51;;;;;;;0.20;0.20;;;;;;;;;;5104631;28;20208;-72
2020/12/17 12:24:17;;;;;;;1.03;1.03;;;;;;;;;;5104778;28;20210;-73
2020/12/17 12:26:45;;;;;;;0.83;0.83;;;;;;;;;;5083910;28;20213;-72
2020/12/17 12:29:11;;;;;;;0.20;0.20;;;;;;;;;;5102871;28;20211;-71
2020/12/17 12:31:38;;;;;;;1.47;0.63;;;;;;;;;;5102185;28;20204;-73
2020/12/17 12:34:04;;;;;;;0.67;0.67;;;;;;;;;;5086045;28;20251;-74
2020/12/17 12:36:31;;;;;;;0.10;0.10;;;;;;;;;;5083898;28;20197;-76
2020/12/17 12:38:57;;;;;;;1.30;1.30;;;;;;;;;;5086072;28;20275;-76
2020/12/17 12:41:24;;;;;;;0.20;0.20;;;;;;;;;;5104374;28;20204;-76
2020/12/17 12:43:51;;;;;;;0.67;0.63;;;;;;;;;;5104726;28;20445;-76
2020/12/17 12:46:18;;;;;;;0.20;0.20;;;;;;;;;;5086451;28;20227;-75
2020/12/17 12:48:44;;;;;;;0.10;0.10;;;;;;;;;;5103753;28;20212;-75
2020/12/17 12:51:11;;;;;;;0.30;0.30;;;;;;;;;;5085923;28;20236;-76
2020/12/17 12:53:38;;;;;;;0.20;0.20;;;;;;;;;;5084374;28;20295;-74
2020/12/17 12:56:04;;;;;;;0.20;0.20;;;;;;;;;;5086129;28;20232;-75
2020/12/17 12:58:31;;;;;;;0.43;0.43;;;;;;;;;;5103200;28;20275;-75
2020/12/17 13:00:58;;;;;;;0.60;0.60;;;;;;;;;;5101717;28;20204;-75
2020/12/17 13:03:25;;;;;;;0.40;0.40;;;;;;;;;;5085159;28;20204;-73
2020/12/17 13:05:51;;;;;;;0.20;0.20;;;;;;;;;;5085802;28;20209;-71
2020/12/17 13:08:19;;;;;;;0.10;0.10;;;;;;;;;;5103623;28;20211;-70
2020/12/17 13:10:45;;;;;;;0.40;0.40;;;;;;;;;;5088993;28;20463;-70
2020/12/17 13:13:12;;;;;;;4.93;4.73;;;;;;;;;;5085102;28;20301;-71
2020/12/17 13:15:41;;;;;;;0.20;0.20;;;;;;;;;;5104408;28;20290;-70
2020/12/17 13:18:11;;;;;;;0.33;0.33;;;;;;;;;;5101378;28;20220;-70
2020/12/17 13:20:37;;;;;;;0.20;0.20;;;;;;;;;;5105434;28;20486;-70
2020/12/17 13:23:04;;;;;;;3.10;1.90;;;;;;;;;;5086156;28;20201;-70
2020/12/17 13:25:30;;;;;;;0.20;0.20;;;;;;;;;;5085276;28;20277;-70
2020/12/17 13:27:57;;;;;;;0.10;0.10;;;;;;;;;;5085912;28;20205;-70
2020/12/17 13:30:23;;;;;;;0.10;0.10;;;;;;;;;;5085671;28;20231;-69
2020/12/17 13:32:50;;;;;;;0.50;0.50;;;;;;;;;;5102678;28;20213;-70
2020/12/17 13:35:17;;;;;;;0.30;0.30;;;;;;;;;;5086625;28;20209;-69
2020/12/17 13:37:44;;;;;;;0.10;0.10;;;;;;;;;;5083231;28;20227;-69
2020/12/17 13:40:11;;;;;;;0.20;0.20;;;;;;;;;;5087106;28;20202;-69
2020/12/17 13:42:37;;;;;;;0.30;0.30;;;;;;;;;;5084691;28;20484;-72
2020/12/17 13:45:04;;;;;;;0.10;0.10;;;;;;;;;;5101918;28;20547;-72
2020/12/17 13:47:30;;;;;;;0.10;0.10;;;;;;;;;;5101289;28;20202;-73
2020/12/17 13:49:57;;;;;;;0.97;0.97;;;;;;;;;;5085729;28;20257;-72
2020/12/17 13:52:24;;;;;;;0.20;0.20;;;;;;;;;;5083556;28;20240;-72
2020/12/17 13:54:51;;;;;;;0.20;0.20;;;;;;;;;;5088472;28;20552;-72
2020/12/17 13:57:17;;;;;;;0.50;0.50;;;;;;;;;;5084999;28;20314;-72
2020/12/17 13:59:44;;;;;;;0.77;0.77;;;;;;;;;;5084436;28;20199;-73
2020/12/17 14:02:11;;;;;;;0.20;0.20;;;;;;;;;;5085201;28;20200;-72
2020/12/17 14:04:38;;;;;;;0.20;0.20;;;;;;;;;;5083696;28;20204;-72
2020/12/17 14:07:04;;;;;;;0.13;0.13;;;;;;;;;;5084712;28;20394;-74
2020/12/17 14:09:32;;;;;;;0.20;0.20;;;;;;;;;;5104704;28;20213;-74
2020/12/17 14:11:59;;;;;;;0.17;0.17;;;;;;;;;;5084559;28;20212;-73
2020/12/17 14:14:25;;;;;;;0.10;0.10;;;;;;;;;;5085315;28;20220;-72
2020/12/17 14:16:52;;;;;;;0.20;0.20;;;;;;;;;;5083963;28;20422;-74
2020/12/17 14:19:19;;;;;;;0.10;0.10;;;;;;;;;;5086351;28;20213;-72
2020/12/17 14:21:46;;;;;;;0.20;0.20;;;;;;;;;;5092854;28;20247;-73
2020/12/17 14:24:13;;;;;;;0.67;0.67;;;;;;;;;;5089977;28;20204;-74
2020/12/17 14:26:40;;;;;;;0.20;0.20;;;;;;;;;;5084820;28;20273;-72
2020/12/17 14:29:07;;;;;;;0.20;0.20;;;;;;;;;;5105799;28;20201;-74
2020/12/17 14:31:33;;;;;;;1.50;1.40;;;;;;;;;;5086220;28;20435;-73
2020/12/17 14:34:00;;;;;;;0.10;0.10;;;;;;;;;;5085366;28;20468;-74
2020/12/17 14:36:27;;;;;;;0.10;0.10;;;;;;;;;;5087225;28;20205;-74
2020/12/17 14:38:54;;;;;;;0.20;0.20;;;;;;;;;;5085897;28;20250;-72
2020/12/17 14:41:21;;;;;;;1.23;1.23;;;;;;;;;;5088178;28;20201;-73
2020/12/17 14:43:48;;;;;;;0.77;0.77;;;;;;;;;;5105966;28;20200;-73